RMK

Tweets about a recent trend: RMK

@NSKSM_rmk たぬきの人ぽん太イッヌって並びで生き物3つ出てくるからなw もう訳分からんわw
LWIS CZBA 110545Z AUTO 27012G27KT OVC018 M01/M06 A3008 RMK ADVISORY ONLY=
RT @Fashion_Alice01: このツイートをRT&フォローするだけで「RMK、YSL、フラワーリップなど豪華3点セット」が5名に!〆12月25日、当選はDMにて
RT @voguejp: ヴォーグ・ビューティー・アワード2018 受賞コスメを56名様にプレゼント💄💋 RMK、ジバンシイ、シュウウエムラ、ルブタンetc. 応募方法: ①このアカウント(@voguejp)をフォロー。 ②このツイートをRT。 〆切は1… https://t.co/omt4huN2HT
2018/12/11 05:30 RCSS 110530Z 12004KT 090V150 8000 -DZ FEW008 BKN018 BKN035 21/20 Q1017 NOSIG RMK A3005
2018/12/11 05:30 RCMQ 110530Z 01013KT 6000 SCT003 BKN006 BKN025 23/19 Q1015 NOSIG RMK A3000
2018/12/11 05:30 RCKH 110530Z 33008KT 290V020 4200 HZ FEW016 SCT120 29/20 Q1014 NOSIG RMK A2995
2018/12/11 05:30 RCTP 110530Z 04012KT 4000 -RA SCT003 BKN005 BKN015 20/20 Q1018 NOSIG RMK A3006
2018/12/11 05:30 RCNN 110530Z 32010KT 6000 FEW012 BKN060 26/19 Q1014 NOSIG RMK A2997
RT @Fashion_Alice01: このツイートをRT&フォローするだけで「RMK、YSL、フラワーリップなど豪華3点セット」が5名に!〆12月25日、当選はDMにて
けんしょりを手に入れた〜!RMKのティントとっても優秀☺️ #ジャニヲタとコスメ このタグしてみたかった(小声) https://t.co/L2gl8NHxk9
RT @voguejp: ヴォーグ・ビューティー・アワード2018 受賞コスメを56名様にプレゼント💄💋 RMK、ジバンシイ、シュウウエムラ、ルブタンetc. 応募方法: ①このアカウント(@voguejp)をフォロー。 ②このツイートをRT。 〆切は1… https://t.co/1WX5NObu6o
ほくたゃは、、うーん、、RMK、、
rmkのリップ、わりと唇が乾燥してしまうんだよな~。いっぱい買おーと思ってたけど、もうちょっと悩んでいいかもしれない🤔💦
. 凛が 欲しがってた コスメを 誕プレに ( ˆỏˆ )💐 RMK は 私もお気に入りの LIPと ファンデ 💄 おめでとう (〃^ω^〃) ❤︎ ❤︎ . https://t.co/KTY8RMwuSE
RJFU 110516Z 01009KT 5000 -SHRA BR FEW005 SCT007 BKN010 10/09 Q1019 RMK 1ST005 4ST007 6CU010 A3010
DHAGEYSO: Warka Subaxnimo ee Radio Midnimo Kenya-RMK, 11-12-2018 https://t.co/C6kbHsCDFg
RJFK 110500Z 10009KT 9999 -SHRA FEW015 BKN025 BKN035 12/09 Q1017 RMK 1CU015 5CU025 7CU035 A3005
@mame_rmk ありがとうございます! お先にフォロー失礼致します!
RT @sinistersanji: Rmk Basketball Tournament Ep.1 Coming soon https://t.co/0g9hAewMew
LWIS CZBA 110530Z AUTO 27020G25KT 240V300 OVC018 M01/M06 A3008 RMK ADVISORY ONLY=
rmkのグリーンのグロス、欲しかったな…🌿
METAR YBWE 110530Z 22004KT 24/10 Q1013 RMK RF0.0/0.0 UV18
@gun_7stars 可愛いんだけど色が決められない😂 RMKのグロス元々好きだからほしいはほしいんだけども、、、 悩ましい、、、
LeibraG - Only U and Me [Reveal Music Release] #RevealMusicOfficial #LeibraG #OnlyUandMe #RMK Art Work Pro... https://t.co/8fuT2lynyC